sensor_id;sensor_type;location;lat;lon;timestamp;P1;durP1;ratioP1;P2;durP2;ratioP2
52035;SDS011;38046;49.448;32.074;2023-05-14T00:01:56;3.40;;;3.10;;
52035;SDS011;38046;49.448;32.074;2023-05-14T00:04:22;4.82;;;3.25;;
52035;SDS011;38046;49.448;32.074;2023-05-14T00:06:48;9.15;;;4.35;;
52035;SDS011;38046;49.448;32.074;2023-05-14T00:09:13;4.10;;;3.70;;
52035;SDS011;38046;49.448;32.074;2023-05-14T00:11:39;4.63;;;3.70;;
52035;SDS011;38046;49.448;32.074;2023-05-14T00:14:05;4.45;;;3.80;;
52035;SDS011;38046;49.448;32.074;2023-05-14T00:16:30;4.72;;;3.92;;
52035;SDS011;38046;49.448;32.074;2023-05-14T00:18:56;5.25;;;3.50;;
52035;SDS011;38046;49.448;32.074;2023-05-14T00:21:22;5.30;;;3.80;;
52035;SDS011;38046;49.448;32.074;2023-05-14T00:23:47;6.47;;;4.30;;
52035;SDS011;38046;49.448;32.074;2023-05-14T00:26:13;4.07;;;3.67;;
52035;SDS011;38046;49.448;32.074;2023-05-14T00:28:39;3.42;;;2.97;;
52035;SDS011;38046;49.448;32.074;2023-05-14T00:31:04;5.85;;;3.03;;
52035;SDS011;38046;49.448;32.074;2023-05-14T00:33:30;3.72;;;3.08;;
52035;SDS011;38046;49.448;32.074;2023-05-14T00:35:56;5.65;;;3.38;;
52035;SDS011;38046;49.448;32.074;2023-05-14T00:38:22;3.92;;;3.10;;
52035;SDS011;38046;49.448;32.074;2023-05-14T00:40:48;3.25;;;2.88;;
52035;SDS011;38046;49.448;32.074;2023-05-14T00:43:19;5.53;;;2.95;;
52035;SDS011;38046;49.448;32.074;2023-05-14T00:45:46;3.85;;;2.85;;
52035;SDS011;38046;49.448;32.074;2023-05-14T00:48:17;4.22;;;3.22;;
52035;SDS011;38046;49.448;32.074;2023-05-14T00:50:43;5.15;;;3.30;;
52035;SDS011;38046;49.448;32.074;2023-05-14T00:53:09;3.60;;;2.90;;
52035;SDS011;38046;49.448;32.074;2023-05-14T00:55:36;3.90;;;2.70;;
52035;SDS011;38046;49.448;32.074;2023-05-14T00:58:04;6.60;;;3.15;;
52035;SDS011;38046;49.448;32.074;2023-05-14T01:00:33;4.80;;;3.00;;
52035;SDS011;38046;49.448;32.074;2023-05-14T01:02:59;3.20;;;2.90;;
52035;SDS011;38046;49.448;32.074;2023-05-14T01:05:28;3.65;;;2.97;;
52035;SDS011;38046;49.448;32.074;2023-05-14T01:11:35;4.43;;;2.75;;
52035;SDS011;38046;49.448;32.074;2023-05-14T01:16:57;2.85;;;2.63;;
52035;SDS011;38046;49.448;32.074;2023-05-14T01:19:31;5.85;;;2.97;;
52035;SDS011;38046;49.448;32.074;2023-05-14T01:22:05;4.40;;;2.97;;
52035;SDS011;38046;49.448;32.074;2023-05-14T01:24:31;3.65;;;3.10;;
52035;SDS011;38046;49.448;32.074;2023-05-14T01:29:58;4.80;;;3.00;;
52035;SDS011;38046;49.448;32.074;2023-05-14T01:32:49;4.13;;;3.08;;
52035;SDS011;38046;49.448;32.074;2023-05-14T01:35:17;5.05;;;3.20;;
52035;SDS011;38046;49.448;32.074;2023-05-14T01:37:47;4.13;;;3.20;;
52035;SDS011;38046;49.448;32.074;2023-05-14T01:40:14;5.63;;;3.90;;
52035;SDS011;38046;49.448;32.074;2023-05-14T01:42:39;5.18;;;4.30;;
52035;SDS011;38046;49.448;32.074;2023-05-14T01:45:06;4.80;;;3.85;;
52035;SDS011;38046;49.448;32.074;2023-05-14T01:47:32;4.13;;;3.72;;
52035;SDS011;38046;49.448;32.074;2023-05-14T01:49:58;5.13;;;4.00;;
52035;SDS011;38046;49.448;32.074;2023-05-14T01:52:24;5.32;;;3.78;;
52035;SDS011;38046;49.448;32.074;2023-05-14T01:54:49;9.18;;;5.22;;
52035;SDS011;38046;49.448;32.074;2023-05-14T01:57:15;9.30;;;6.47;;
52035;SDS011;38046;49.448;32.074;2023-05-14T01:59:41;12.05;;;7.43;;
52035;SDS011;38046;49.448;32.074;2023-05-14T02:02:06;10.07;;;7.22;;
52035;SDS011;38046;49.448;32.074;2023-05-14T02:04:32;9.98;;;7.07;;
52035;SDS011;38046;49.448;32.074;2023-05-14T02:06:58;8.02;;;6.13;;
52035;SDS011;38046;49.448;32.074;2023-05-14T02:09:23;10.43;;;6.20;;
52035;SDS011;38046;49.448;32.074;2023-05-14T02:11:49;12.52;;;6.55;;
52035;SDS011;38046;49.448;32.074;2023-05-14T02:14:15;7.57;;;5.97;;
52035;SDS011;38046;49.448;32.074;2023-05-14T02:16:40;8.52;;;6.65;;
52035;SDS011;38046;49.448;32.074;2023-05-14T02:19:06;8.63;;;6.65;;
52035;SDS011;38046;49.448;32.074;2023-05-14T02:21:32;7.90;;;6.30;;
52035;SDS011;38046;49.448;32.074;2023-05-14T02:23:57;8.98;;;6.60;;
52035;SDS011;38046;49.448;32.074;2023-05-14T02:26:23;8.23;;;6.25;;
52035;SDS011;38046;49.448;32.074;2023-05-14T02:28:49;9.63;;;7.22;;
52035;SDS011;38046;49.448;32.074;2023-05-14T02:31:14;9.07;;;7.10;;
52035;SDS011;38046;49.448;32.074;2023-05-14T02:33:42;10.75;;;7.32;;
52035;SDS011;38046;49.448;32.074;2023-05-14T02:36:08;13.02;;;8.23;;
52035;SDS011;38046;49.448;32.074;2023-05-14T02:38:34;18.30;;;9.48;;
52035;SDS011;38046;49.448;32.074;2023-05-14T02:41:00;19.42;;;10.10;;
52035;SDS011;38046;49.448;32.074;2023-05-14T02:43:25;16.00;;;9.82;;
52035;SDS011;38046;49.448;32.074;2023-05-14T02:45:51;14.88;;;10.20;;
52035;SDS011;38046;49.448;32.074;2023-05-14T02:48:17;17.17;;;9.60;;
52035;SDS011;38046;49.448;32.074;2023-05-14T02:50:42;18.45;;;11.43;;
52035;SDS011;38046;49.448;32.074;2023-05-14T02:53:08;19.38;;;10.43;;
52035;SDS011;38046;49.448;32.074;2023-05-14T02:55:34;16.67;;;10.45;;
52035;SDS011;38046;49.448;32.074;2023-05-14T02:58:03;14.10;;;10.13;;
52035;SDS011;38046;49.448;32.074;2023-05-14T03:00:29;17.30;;;9.27;;
52035;SDS011;38046;49.448;32.074;2023-05-14T03:02:54;14.02;;;8.55;;
52035;SDS011;38046;49.448;32.074;2023-05-14T03:05:20;12.98;;;8.07;;
52035;SDS011;38046;49.448;32.074;2023-05-14T03:07:46;10.93;;;7.57;;
52035;SDS011;38046;49.448;32.074;2023-05-14T03:10:11;12.38;;;7.93;;
52035;SDS011;38046;49.448;32.074;2023-05-14T03:12:40;12.10;;;7.80;;
52035;SDS011;38046;49.448;32.074;2023-05-14T03:15:07;11.77;;;8.20;;
52035;SDS011;38046;49.448;32.074;2023-05-14T03:17:33;10.93;;;6.40;;
52035;SDS011;38046;49.448;32.074;2023-05-14T03:19:59;10.43;;;6.55;;
52035;SDS011;38046;49.448;32.074;2023-05-14T03:22:25;11.43;;;6.25;;
52035;SDS011;38046;49.448;32.074;2023-05-14T03:24:51;8.77;;;5.65;;
52035;SDS011;38046;49.448;32.074;2023-05-14T03:27:16;8.40;;;5.88;;
52035;SDS011;38046;49.448;32.074;2023-05-14T03:29:42;6.60;;;5.35;;
52035;SDS011;38046;49.448;32.074;2023-05-14T03:32:07;7.38;;;5.10;;
52035;SDS011;38046;49.448;32.074;2023-05-14T03:34:33;6.45;;;5.35;;
52035;SDS011;38046;49.448;32.074;2023-05-14T03:36:59;6.18;;;4.68;;
52035;SDS011;38046;49.448;32.074;2023-05-14T03:39:26;5.93;;;4.65;;
52035;SDS011;38046;49.448;32.074;2023-05-14T03:41:51;7.05;;;4.68;;
52035;SDS011;38046;49.448;32.074;2023-05-14T03:44:17;5.57;;;3.97;;
52035;SDS011;38046;49.448;32.074;2023-05-14T03:46:43;5.18;;;3.83;;
52035;SDS011;38046;49.448;32.074;2023-05-14T03:49:08;5.43;;;4.05;;
52035;SDS011;38046;49.448;32.074;2023-05-14T03:51:34;7.22;;;3.88;;
52035;SDS011;38046;49.448;32.074;2023-05-14T03:54:00;6.07;;;4.30;;
52035;SDS011;38046;49.448;32.074;2023-05-14T03:56:26;6.30;;;3.83;;
52035;SDS011;38046;49.448;32.074;2023-05-14T03:58:52;5.63;;;3.40;;
52035;SDS011;38046;49.448;32.074;2023-05-14T04:01:18;5.70;;;4.00;;
52035;SDS011;38046;49.448;32.074;2023-05-14T04:03:43;5.43;;;3.63;;
52035;SDS011;38046;49.448;32.074;2023-05-14T04:06:09;5.25;;;3.80;;
52035;SDS011;38046;49.448;32.074;2023-05-14T04:08:35;4.57;;;3.17;;
52035;SDS011;38046;49.448;32.074;2023-05-14T04:11:00;3.85;;;3.35;;
52035;SDS011;38046;49.448;32.074;2023-05-14T04:13:26;5.13;;;3.72;;
52035;SDS011;38046;49.448;32.074;2023-05-14T04:15:52;5.55;;;3.20;;
52035;SDS011;38046;49.448;32.074;2023-05-14T04:18:17;4.97;;;3.28;;
52035;SDS011;38046;49.448;32.074;2023-05-14T04:20:43;4.50;;;3.25;;
52035;SDS011;38046;49.448;32.074;2023-05-14T04:23:09;4.55;;;3.40;;
52035;SDS011;38046;49.448;32.074;2023-05-14T04:25:34;8.30;;;3.20;;
52035;SDS011;38046;49.448;32.074;2023-05-14T04:28:00;3.83;;;3.08;;
52035;SDS011;38046;49.448;32.074;2023-05-14T04:30:26;4.20;;;3.30;;
52035;SDS011;38046;49.448;32.074;2023-05-14T04:32:51;4.10;;;3.20;;
52035;SDS011;38046;49.448;32.074;2023-05-14T04:35:17;4.28;;;3.17;;
52035;SDS011;38046;49.448;32.074;2023-05-14T04:37:44;3.47;;;2.80;;
52035;SDS011;38046;49.448;32.074;2023-05-14T04:40:10;3.05;;;2.70;;
52035;SDS011;38046;49.448;32.074;2023-05-14T04:42:36;4.20;;;2.90;;
52035;SDS011;38046;49.448;32.074;2023-05-14T04:45:04;32.95;;;5.55;;
52035;SDS011;38046;49.448;32.074;2023-05-14T04:47:31;7.55;;;3.53;;
52035;SDS011;38046;49.448;32.074;2023-05-14T04:49:56;3.92;;;2.60;;
52035;SDS011;38046;49.448;32.074;2023-05-14T04:52:23;3.83;;;2.67;;
52035;SDS011;38046;49.448;32.074;2023-05-14T04:54:49;3.60;;;2.67;;
52035;SDS011;38046;49.448;32.074;2023-05-14T04:57:15;2.58;;;2.35;;
52035;SDS011;38046;49.448;32.074;2023-05-14T04:59:41;3.03;;;2.80;;
52035;SDS011;38046;49.448;32.074;2023-05-14T05:02:06;3.67;;;3.00;;
52035;SDS011;38046;49.448;32.074;2023-05-14T05:04:32;4.18;;;3.05;;
52035;SDS011;38046;49.448;32.074;2023-05-14T05:06:58;2.90;;;2.63;;
52035;SDS011;38046;49.448;32.074;2023-05-14T05:09:24;5.82;;;2.20;;
52035;SDS011;38046;49.448;32.074;2023-05-14T05:11:49;4.18;;;2.90;;
52035;SDS011;38046;49.448;32.074;2023-05-14T05:14:15;3.35;;;2.35;;
52035;SDS011;38046;49.448;32.074;2023-05-14T05:16:41;4.68;;;2.70;;
52035;SDS011;38046;49.448;32.074;2023-05-14T05:19:07;4.18;;;2.40;;
52035;SDS011;38046;49.448;32.074;2023-05-14T05:21:33;4.53;;;2.67;;
52035;SDS011;38046;49.448;32.074;2023-05-14T05:24:01;5.03;;;3.03;;
52035;SDS011;38046;49.448;32.074;2023-05-14T05:26:27;3.08;;;2.70;;
52035;SDS011;38046;49.448;32.074;2023-05-14T05:28:52;4.30;;;2.50;;
52035;SDS011;38046;49.448;32.074;2023-05-14T05:31:18;4.22;;;2.78;;
52035;SDS011;38046;49.448;32.074;2023-05-14T05:33:44;4.18;;;3.00;;
52035;SDS011;38046;49.448;32.074;2023-05-14T05:36:10;4.15;;;2.55;;
52035;SDS011;38046;49.448;32.074;2023-05-14T05:38:36;4.32;;;2.70;;
52035;SDS011;38046;49.448;32.074;2023-05-14T05:41:01;3.40;;;3.10;;
52035;SDS011;38046;49.448;32.074;2023-05-14T05:43:27;3.58;;;2.83;;
52035;SDS011;38046;49.448;32.074;2023-05-14T05:45:53;3.30;;;2.60;;
52035;SDS011;38046;49.448;32.074;2023-05-14T05:48:18;5.30;;;3.03;;
52035;SDS011;38046;49.448;32.074;2023-05-14T05:50:47;3.25;;;2.72;;
52035;SDS011;38046;49.448;32.074;2023-05-14T05:53:14;2.78;;;2.40;;
52035;SDS011;38046;49.448;32.074;2023-05-14T05:55:43;5.15;;;3.13;;
52035;SDS011;38046;49.448;32.074;2023-05-14T05:58:08;4.18;;;2.67;;
52035;SDS011;38046;49.448;32.074;2023-05-14T06:00:34;5.32;;;2.55;;
52035;SDS011;38046;49.448;32.074;2023-05-14T06:03:00;3.60;;;2.75;;
52035;SDS011;38046;49.448;32.074;2023-05-14T06:05:26;3.28;;;2.70;;
52035;SDS011;38046;49.448;32.074;2023-05-14T06:07:51;4.03;;;2.90;;
52035;SDS011;38046;49.448;32.074;2023-05-14T06:10:19;3.58;;;3.10;;
52035;SDS011;38046;49.448;32.074;2023-05-14T06:12:45;4.95;;;3.25;;
52035;SDS011;38046;49.448;32.074;2023-05-14T06:15:11;3.47;;;2.90;;
52035;SDS011;38046;49.448;32.074;2023-05-14T06:17:37;3.85;;;2.95;;
52035;SDS011;38046;49.448;32.074;2023-05-14T06:20:03;3.63;;;2.70;;
52035;SDS011;38046;49.448;32.074;2023-05-14T06:22:33;3.65;;;2.95;;
52035;SDS011;38046;49.448;32.074;2023-05-14T06:24:58;2.95;;;2.55;;
52035;SDS011;38046;49.448;32.074;2023-05-14T06:27:24;3.55;;;2.67;;
52035;SDS011;38046;49.448;32.074;2023-05-14T06:29:50;2.90;;;2.70;;
52035;SDS011;38046;49.448;32.074;2023-05-14T06:32:15;2.75;;;2.55;;
52035;SDS011;38046;49.448;32.074;2023-05-14T06:34:41;5.07;;;3.40;;
52035;SDS011;38046;49.448;32.074;2023-05-14T06:37:08;4.85;;;2.97;;
52035;SDS011;38046;49.448;32.074;2023-05-14T06:39:34;2.90;;;2.70;;
52035;SDS011;38046;49.448;32.074;2023-05-14T06:42:02;3.80;;;2.90;;
52035;SDS011;38046;49.448;32.074;2023-05-14T06:44:28;3.40;;;3.08;;
52035;SDS011;38046;49.448;32.074;2023-05-14T06:46:53;5.50;;;3.28;;
52035;SDS011;38046;49.448;32.074;2023-05-14T06:49:19;3.33;;;3.00;;
52035;SDS011;38046;49.448;32.074;2023-05-14T06:51:45;3.10;;;2.75;;
52035;SDS011;38046;49.448;32.074;2023-05-14T06:54:11;4.32;;;2.95;;
52035;SDS011;38046;49.448;32.074;2023-05-14T06:56:37;4.40;;;3.28;;
52035;SDS011;38046;49.448;32.074;2023-05-14T06:59:02;3.53;;;2.90;;
52035;SDS011;38046;49.448;32.074;2023-05-14T07:01:28;4.07;;;2.88;;
52035;SDS011;38046;49.448;32.074;2023-05-14T07:03:54;3.97;;;3.00;;
52035;SDS011;38046;49.448;32.074;2023-05-14T07:06:20;4.82;;;3.38;;
52035;SDS011;38046;49.448;32.074;2023-05-14T07:08:46;3.30;;;2.90;;
52035;SDS011;38046;49.448;32.074;2023-05-14T07:11:29;4.72;;;3.17;;
52035;SDS011;38046;49.448;32.074;2023-05-14T07:13:55;5.40;;;3.20;;
52035;SDS011;38046;49.448;32.074;2023-05-14T07:16:21;4.68;;;2.90;;
52035;SDS011;38046;49.448;32.074;2023-05-14T07:18:46;4.10;;;3.25;;
52035;SDS011;38046;49.448;32.074;2023-05-14T07:21:12;4.38;;;3.38;;
52035;SDS011;38046;49.448;32.074;2023-05-14T07:23:38;4.25;;;2.83;;
52035;SDS011;38046;49.448;32.074;2023-05-14T07:26:04;3.88;;;3.20;;
52035;SDS011;38046;49.448;32.074;2023-05-14T07:28:30;3.75;;;3.00;;
52035;SDS011;38046;49.448;32.074;2023-05-14T07:30:56;3.05;;;2.75;;
52035;SDS011;38046;49.448;32.074;2023-05-14T07:33:25;3.58;;;3.00;;
52035;SDS011;38046;49.448;32.074;2023-05-14T07:35:51;5.03;;;3.08;;
52035;SDS011;38046;49.448;32.074;2023-05-14T07:38:18;2.97;;;2.65;;
52035;SDS011;38046;49.448;32.074;2023-05-14T07:40:44;4.10;;;3.25;;
52035;SDS011;38046;49.448;32.074;2023-05-14T07:43:10;3.03;;;2.67;;
52035;SDS011;38046;49.448;32.074;2023-05-14T07:45:36;3.35;;;2.95;;
52035;SDS011;38046;49.448;32.074;2023-05-14T07:48:03;3.88;;;3.10;;
52035;SDS011;38046;49.448;32.074;2023-05-14T07:50:29;4.03;;;3.10;;
52035;SDS011;38046;49.448;32.074;2023-05-14T07:52:55;3.35;;;3.00;;
52035;SDS011;38046;49.448;32.074;2023-05-14T07:55:21;4.15;;;3.20;;
52035;SDS011;38046;49.448;32.074;2023-05-14T07:57:46;3.67;;;3.28;;
52035;SDS011;38046;49.448;32.074;2023-05-14T08:00:15;3.38;;;2.70;;
52035;SDS011;38046;49.448;32.074;2023-05-14T08:02:41;2.97;;;2.78;;
52035;SDS011;38046;49.448;32.074;2023-05-14T08:05:07;3.88;;;3.20;;
52035;SDS011;38046;49.448;32.074;2023-05-14T08:07:38;3.45;;;3.08;;
52035;SDS011;38046;49.448;32.074;2023-05-14T08:10:04;4.07;;;3.28;;
52035;SDS011;38046;49.448;32.074;2023-05-14T08:12:32;3.85;;;3.45;;
52035;SDS011;38046;49.448;32.074;2023-05-14T08:14:58;3.90;;;3.50;;
52035;SDS011;38046;49.448;32.074;2023-05-14T08:17:25;4.13;;;3.22;;
52035;SDS011;38046;49.448;32.074;2023-05-14T08:19:51;5.30;;;3.45;;
52035;SDS011;38046;49.448;32.074;2023-05-14T08:22:47;3.53;;;2.90;;
52035;SDS011;38046;49.448;32.074;2023-05-14T08:25:13;3.67;;;2.85;;
52035;SDS011;38046;49.448;32.074;2023-05-14T08:27:38;4.35;;;3.03;;
52035;SDS011;38046;49.448;32.074;2023-05-14T08:30:06;3.40;;;3.10;;
52035;SDS011;38046;49.448;32.074;2023-05-14T08:32:32;4.75;;;3.30;;
52035;SDS011;38046;49.448;32.074;2023-05-14T08:34:58;3.53;;;3.00;;
52035;SDS011;38046;49.448;32.074;2023-05-14T08:37:26;4.30;;;3.33;;
52035;SDS011;38046;49.448;32.074;2023-05-14T08:39:51;4.55;;;3.28;;
52035;SDS011;38046;49.448;32.074;2023-05-14T08:42:21;5.18;;;3.17;;
52035;SDS011;38046;49.448;32.074;2023-05-14T08:44:56;4.28;;;3.35;;
52035;SDS011;38046;49.448;32.074;2023-05-14T08:47:26;3.90;;;3.10;;
52035;SDS011;38046;49.448;32.074;2023-05-14T08:50:05;3.80;;;3.15;;
52035;SDS011;38046;49.448;32.074;2023-05-14T08:52:33;5.50;;;3.63;;
52035;SDS011;38046;49.448;32.074;2023-05-14T08:55:13;4.45;;;3.55;;
52035;SDS011;38046;49.448;32.074;2023-05-14T08:57:44;6.50;;;3.40;;
52035;SDS011;38046;49.448;32.074;2023-05-14T09:00:13;4.43;;;3.25;;
52035;SDS011;38046;49.448;32.074;2023-05-14T09:02:39;4.35;;;3.40;;
52035;SDS011;38046;49.448;32.074;2023-05-14T09:05:06;4.15;;;3.50;;
52035;SDS011;38046;49.448;32.074;2023-05-14T09:07:33;4.60;;;3.40;;
52035;SDS011;38046;49.448;32.074;2023-05-14T09:10:03;3.35;;;3.03;;
52035;SDS011;38046;49.448;32.074;2023-05-14T09:12:31;3.67;;;3.28;;
52035;SDS011;38046;49.448;32.074;2023-05-14T09:14:59;4.40;;;3.10;;
52035;SDS011;38046;49.448;32.074;2023-05-14T09:17:25;3.60;;;3.15;;
52035;SDS011;38046;49.448;32.074;2023-05-14T09:19:51;3.85;;;3.28;;
52035;SDS011;38046;49.448;32.074;2023-05-14T09:22:17;3.70;;;3.28;;
52035;SDS011;38046;49.448;32.074;2023-05-14T09:24:44;4.22;;;3.47;;
52035;SDS011;38046;49.448;32.074;2023-05-14T09:27:19;4.65;;;3.40;;
52035;SDS011;38046;49.448;32.074;2023-05-14T09:29:46;4.43;;;3.10;;
52035;SDS011;38046;49.448;32.074;2023-05-14T09:32:12;4.35;;;3.38;;
52035;SDS011;38046;49.448;32.074;2023-05-14T09:34:38;5.78;;;3.28;;
52035;SDS011;38046;49.448;32.074;2023-05-14T09:37:05;3.75;;;3.13;;
52035;SDS011;38046;49.448;32.074;2023-05-14T09:39:32;4.68;;;3.30;;
52035;SDS011;38046;49.448;32.074;2023-05-14T09:42:00;5.53;;;3.50;;
52035;SDS011;38046;49.448;32.074;2023-05-14T09:44:26;5.60;;;3.50;;
52035;SDS011;38046;49.448;32.074;2023-05-14T09:46:52;5.63;;;3.15;;
52035;SDS011;38046;49.448;32.074;2023-05-14T09:49:18;3.45;;;3.15;;
52035;SDS011;38046;49.448;32.074;2023-05-14T09:51:44;5.65;;;3.92;;
52035;SDS011;38046;49.448;32.074;2023-05-14T09:54:10;5.25;;;3.50;;
52035;SDS011;38046;49.448;32.074;2023-05-14T09:56:36;4.20;;;3.42;;
52035;SDS011;38046;49.448;32.074;2023-05-14T09:59:03;6.00;;;3.90;;
52035;SDS011;38046;49.448;32.074;2023-05-14T10:01:30;4.70;;;3.30;;
52035;SDS011;38046;49.448;32.074;2023-05-14T10:03:59;5.07;;;3.63;;
52035;SDS011;38046;49.448;32.074;2023-05-14T10:06:29;6.68;;;3.83;;
52035;SDS011;38046;49.448;32.074;2023-05-14T10:09:00;4.45;;;3.13;;
52035;SDS011;38046;49.448;32.074;2023-05-14T10:11:29;4.40;;;3.20;;
52035;SDS011;38046;49.448;32.074;2023-05-14T10:16:42;4.45;;;3.67;;
52035;SDS011;38046;49.448;32.074;2023-05-14T10:19:11;3.50;;;3.20;;
52035;SDS011;38046;49.448;32.074;2023-05-14T10:21:42;5.25;;;3.28;;
52035;SDS011;38046;49.448;32.074;2023-05-14T10:24:10;4.07;;;3.50;;
52035;SDS011;38046;49.448;32.074;2023-05-14T10:26:37;3.95;;;3.38;;
52035;SDS011;38046;49.448;32.074;2023-05-14T10:29:05;4.13;;;3.33;;
52035;SDS011;38046;49.448;32.074;2023-05-14T10:37:06;5.25;;;3.30;;
52035;SDS011;38046;49.448;32.074;2023-05-14T10:42:17;5.25;;;3.40;;
52035;SDS011;38046;49.448;32.074;2023-05-14T10:47:14;4.70;;;3.55;;
52035;SDS011;38046;49.448;32.074;2023-05-14T10:49:43;4.60;;;3.60;;
52035;SDS011;38046;49.448;32.074;2023-05-14T10:52:14;4.20;;;3.80;;
52035;SDS011;38046;49.448;32.074;2023-05-14T10:54:48;5.18;;;3.08;;
52035;SDS011;38046;49.448;32.074;2023-05-14T10:57:18;4.97;;;3.90;;
52035;SDS011;38046;49.448;32.074;2023-05-14T10:59:45;4.28;;;3.80;;
52035;SDS011;38046;49.448;32.074;2023-05-14T11:05:08;3.80;;;3.40;;
52035;SDS011;38046;49.448;32.074;2023-05-14T11:07:41;5.70;;;3.67;;
52035;SDS011;38046;49.448;32.074;2023-05-14T11:12:37;5.20;;;3.30;;
52035;SDS011;38046;49.448;32.074;2023-05-14T11:15:26;8.82;;;3.50;;
52035;SDS011;38046;49.448;32.074;2023-05-14T11:17:52;5.47;;;3.63;;
52035;SDS011;38046;49.448;32.074;2023-05-14T11:20:18;3.80;;;2.75;;
52035;SDS011;38046;49.448;32.074;2023-05-14T11:22:45;5.57;;;3.40;;
52035;SDS011;38046;49.448;32.074;2023-05-14T11:25:12;5.15;;;3.40;;
52035;SDS011;38046;49.448;32.074;2023-05-14T11:27:39;3.30;;;2.95;;
52035;SDS011;38046;49.448;32.074;2023-05-14T11:30:16;3.90;;;2.97;;
52035;SDS011;38046;49.448;32.074;2023-05-14T11:32:44;6.53;;;2.90;;
52035;SDS011;38046;49.448;32.074;2023-05-14T11:35:10;3.20;;;2.90;;
52035;SDS011;38046;49.448;32.074;2023-05-14T11:37:36;3.03;;;2.70;;
52035;SDS011;38046;49.448;32.074;2023-05-14T11:40:05;3.45;;;2.85;;
52035;SDS011;38046;49.448;32.074;2023-05-14T11:42:33;3.55;;;2.90;;
52035;SDS011;38046;49.448;32.074;2023-05-14T11:45:01;4.28;;;2.75;;
52035;SDS011;38046;49.448;32.074;2023-05-14T11:47:28;3.22;;;2.78;;
52035;SDS011;38046;49.448;32.074;2023-05-14T11:49:54;3.38;;;3.03;;
52035;SDS011;38046;49.448;32.074;2023-05-14T11:52:20;5.78;;;2.88;;
52035;SDS011;38046;49.448;32.074;2023-05-14T11:54:46;2.78;;;2.58;;
52035;SDS011;38046;49.448;32.074;2023-05-14T11:57:15;3.85;;;2.67;;
52035;SDS011;38046;49.448;32.074;2023-05-14T11:59:42;3.13;;;2.70;;
52035;SDS011;38046;49.448;32.074;2023-05-14T12:02:13;2.92;;;2.53;;
52035;SDS011;38046;49.448;32.074;2023-05-14T12:04:42;5.07;;;2.75;;
52035;SDS011;38046;49.448;32.074;2023-05-14T12:07:16;3.95;;;3.10;;
52035;SDS011;38046;49.448;32.074;2023-05-14T12:09:42;3.40;;;2.78;;
52035;SDS011;38046;49.448;32.074;2023-05-14T12:12:19;4.90;;;2.80;;
52035;SDS011;38046;49.448;32.074;2023-05-14T12:14:46;3.42;;;2.88;;
52035;SDS011;38046;49.448;32.074;2023-05-14T12:17:14;3.75;;;2.70;;
52035;SDS011;38046;49.448;32.074;2023-05-14T12:19:45;2.97;;;2.78;;
52035;SDS011;38046;49.448;32.074;2023-05-14T12:22:18;2.38;;;2.20;;
52035;SDS011;38046;49.448;32.074;2023-05-14T12:24:57;4.18;;;2.47;;
52035;SDS011;38046;49.448;32.074;2023-05-14T12:27:24;4.82;;;2.40;;
52035;SDS011;38046;49.448;32.074;2023-05-14T12:30:02;3.08;;;2.78;;
52035;SDS011;38046;49.448;32.074;2023-05-14T12:32:32;3.55;;;2.58;;
52035;SDS011;38046;49.448;32.074;2023-05-14T12:34:59;3.85;;;2.72;;
52035;SDS011;38046;49.448;32.074;2023-05-14T12:37:25;3.03;;;2.72;;
52035;SDS011;38046;49.448;32.074;2023-05-14T12:39:51;2.70;;;2.50;;
52035;SDS011;38046;49.448;32.074;2023-05-14T12:42:17;3.35;;;2.95;;
52035;SDS011;38046;49.448;32.074;2023-05-14T12:44:42;3.83;;;2.70;;
52035;SDS011;38046;49.448;32.074;2023-05-14T12:47:08;2.97;;;2.70;;
52035;SDS011;38046;49.448;32.074;2023-05-14T12:49:33;3.63;;;3.05;;
52035;SDS011;38046;49.448;32.074;2023-05-14T12:51:59;5.10;;;2.95;;
52035;SDS011;38046;49.448;32.074;2023-05-14T12:54:25;3.40;;;3.08;;
52035;SDS011;38046;49.448;32.074;2023-05-14T12:56:50;3.70;;;2.72;;
52035;SDS011;38046;49.448;32.074;2023-05-14T12:59:16;3.97;;;3.08;;
52035;SDS011;38046;49.448;32.074;2023-05-14T13:01:41;5.45;;;2.92;;
52035;SDS011;38046;49.448;32.074;2023-05-14T13:04:08;3.50;;;2.97;;
52035;SDS011;38046;49.448;32.074;2023-05-14T13:06:36;4.75;;;3.05;;
52035;SDS011;38046;49.448;32.074;2023-05-14T13:09:03;4.63;;;3.00;;
52035;SDS011;38046;49.448;32.074;2023-05-14T13:11:29;3.85;;;2.70;;
52035;SDS011;38046;49.448;32.074;2023-05-14T13:13:56;4.50;;;3.05;;
52035;SDS011;38046;49.448;32.074;2023-05-14T13:16:24;3.83;;;3.40;;
52035;SDS011;38046;49.448;32.074;2023-05-14T13:18:51;3.90;;;2.95;;
52035;SDS011;38046;49.448;32.074;2023-05-14T13:21:16;5.57;;;3.08;;
52035;SDS011;38046;49.448;32.074;2023-05-14T13:23:42;4.40;;;3.13;;
52035;SDS011;38046;49.448;32.074;2023-05-14T13:26:07;4.18;;;2.83;;
52035;SDS011;38046;49.448;32.074;2023-05-14T13:28:33;4.93;;;2.80;;
52035;SDS011;38046;49.448;32.074;2023-05-14T13:31:09;3.97;;;3.20;;
52035;SDS011;38046;49.448;32.074;2023-05-14T13:33:38;3.25;;;2.78;;
52035;SDS011;38046;49.448;32.074;2023-05-14T13:36:06;5.00;;;3.20;;
52035;SDS011;38046;49.448;32.074;2023-05-14T13:38:32;3.25;;;2.88;;
52035;SDS011;38046;49.448;32.074;2023-05-14T13:40:58;4.38;;;3.08;;
52035;SDS011;38046;49.448;32.074;2023-05-14T13:43:29;3.40;;;3.10;;
52035;SDS011;38046;49.448;32.074;2023-05-14T13:45:56;3.80;;;3.10;;
52035;SDS011;38046;49.448;32.074;2023-05-14T13:48:22;4.20;;;2.60;;
52035;SDS011;38046;49.448;32.074;2023-05-14T13:50:49;4.60;;;3.03;;
52035;SDS011;38046;49.448;32.074;2023-05-14T13:53:19;4.53;;;3.30;;
52035;SDS011;38046;49.448;32.074;2023-05-14T13:55:45;3.83;;;3.33;;
52035;SDS011;38046;49.448;32.074;2023-05-14T13:58:12;4.78;;;3.20;;
52035;SDS011;38046;49.448;32.074;2023-05-14T14:00:38;5.45;;;3.13;;
52035;SDS011;38046;49.448;32.074;2023-05-14T14:03:03;4.57;;;3.10;;
52035;SDS011;38046;49.448;32.074;2023-05-14T14:05:29;4.07;;;2.90;;
52035;SDS011;38046;49.448;32.074;2023-05-14T14:07:55;5.53;;;2.95;;
52035;SDS011;38046;49.448;32.074;2023-05-14T14:10:21;3.50;;;3.10;;
52035;SDS011;38046;49.448;32.074;2023-05-14T14:12:47;4.50;;;3.40;;
52035;SDS011;38046;49.448;32.074;2023-05-14T14:15:13;5.53;;;4.07;;
52035;SDS011;38046;49.448;32.074;2023-05-14T14:17:39;5.00;;;3.60;;
52035;SDS011;38046;49.448;32.074;2023-05-14T14:20:06;7.95;;;6.10;;
52035;SDS011;38046;49.448;32.074;2023-05-14T14:22:33;6.90;;;5.22;;
52035;SDS011;38046;49.448;32.074;2023-05-14T14:24:59;5.25;;;4.18;;
52035;SDS011;38046;49.448;32.074;2023-05-14T14:27:24;4.75;;;3.30;;
52035;SDS011;38046;49.448;32.074;2023-05-14T14:29:50;4.68;;;3.22;;
52035;SDS011;38046;49.448;32.074;2023-05-14T14:32:16;4.07;;;3.13;;
52035;SDS011;38046;49.448;32.074;2023-05-14T14:34:42;3.17;;;2.88;;
52035;SDS011;38046;49.448;32.074;2023-05-14T14:37:07;2.97;;;2.67;;
52035;SDS011;38046;49.448;32.074;2023-05-14T14:39:33;7.13;;;2.90;;
52035;SDS011;38046;49.448;32.074;2023-05-14T14:41:58;2.97;;;2.72;;
52035;SDS011;38046;49.448;32.074;2023-05-14T14:44:24;3.35;;;2.70;;
52035;SDS011;38046;49.448;32.074;2023-05-14T14:46:50;3.00;;;2.67;;
52035;SDS011;38046;49.448;32.074;2023-05-14T14:49:16;3.58;;;3.03;;
52035;SDS011;38046;49.448;32.074;2023-05-14T14:51:41;4.30;;;3.03;;
52035;SDS011;38046;49.448;32.074;2023-05-14T14:54:07;6.22;;;4.20;;
52035;SDS011;38046;49.448;32.074;2023-05-14T14:56:32;7.30;;;4.10;;
52035;SDS011;38046;49.448;32.074;2023-05-14T14:58:58;5.00;;;4.25;;
52035;SDS011;38046;49.448;32.074;2023-05-14T15:01:25;6.22;;;3.55;;